Time;durP1;ratioP1;P1;durP2;ratioP2;P2;SDS_P1;SDS_P2;PMS_P1;PMS_P2;Temp;Humidity;BMP_temperature;BMP_pressure;BME280_temperature;BME280_humidity;BME280_pressure;Samples;Min_cycle;Max_cycle;Signal;HPM_P1;HPM_P2
2021/08/06 00:00:31;;;;;;;3.60;1.10;;;537.70;2022.40;;;;;;5115300;28;20376;-75
2021/08/06 00:02:57;;;;;;;2.50;0.90;;;537.70;2048.00;;;;;;5115497;28;20024;-76
2021/08/06 00:05:23;;;;;;;6.47;1.00;;;537.60;2048.00;;;;;;5115410;28;20052;-77
2021/08/06 00:07:49;;;;;;;4.32;1.05;;;512.90;2022.40;;;;;;5115228;28;20163;-77
2021/08/06 00:10:15;;;;;;;4.80;0.88;;;512.90;2022.40;;;;;;5115217;28;20047;-75
2021/08/06 00:12:40;;;;;;;2.97;0.90;;;537.60;2022.40;;;;;;5096806;28;20024;-76
2021/08/06 00:15:07;;;;;;;0.88;0.70;;;537.60;2048.00;;;;;;5096899;28;20064;-77
2021/08/06 00:17:33;;;;;;;5.30;1.10;;;537.60;2022.40;;;;;;5115515;28;20031;-76
2021/08/06 00:19:59;;;;;;;1.70;0.85;;;537.60;2048.00;;;;;;5079891;28;20015;-78
2021/08/06 00:22:25;;;;;;;3.70;0.90;;;537.60;2048.00;;;;;;5114983;28;20103;-76
2021/08/06 00:24:50;;;;;;;3.28;0.93;;;537.70;2048.00;;;;;;5114978;28;20138;-76
2021/08/06 00:27:16;;;;;;;0.88;0.80;;;537.70;2022.40;;;;;;5114722;28;20043;-77
2021/08/06 00:29:42;;;;;;;1.35;0.85;;;537.60;2048.00;;;;;;5096516;28;20023;-76
2021/08/06 00:32:08;;;;;;;3.42;0.80;;;537.60;2048.00;;;;;;5115027;28;20038;-78
2021/08/06 00:34:34;;;;;;;2.15;0.63;;;512.90;2022.40;;;;;;5114782;28;20016;-77
2021/08/06 00:37:00;;;;;;;2.97;0.80;;;512.90;2022.40;;;;;;5114067;28;20031;-77
2021/08/06 00:39:26;;;;;;;4.25;0.90;;;512.90;2022.40;;;;;;5114498;28;20015;-77
2021/08/06 00:41:52;;;;;;;2.10;0.90;;;512.90;2022.40;;;;;;5114608;28;20353;-77
2021/08/06 00:44:18;;;;;;;2.92;1.05;;;537.60;2048.00;;;;;;5114819;28;20035;-77
2021/08/06 00:46:44;;;;;;;1.77;0.63;;;512.90;2022.40;;;;;;5114582;28;20114;-78
2021/08/06 00:49:10;;;;;;;2.83;0.90;;;512.80;2048.00;;;;;;5114498;28;20055;-77
2021/08/06 00:51:36;;;;;;;4.43;1.48;;;512.80;2022.40;;;;;;5114422;28;20024;-77
2021/08/06 00:54:03;;;;;;;1.90;0.98;;;512.80;2048.00;;;;;;5096487;28;20108;-77
2021/08/06 00:56:28;;;;;;;5.50;0.98;;;512.80;2048.00;;;;;;5114270;28;20024;-78
2021/08/06 00:58:54;;;;;;;2.10;0.80;;;512.70;2048.00;;;;;;5114327;28;20460;-77
2021/08/06 01:01:21;;;;;;;4.75;0.80;;;512.80;2048.00;;;;;;5114341;28;20069;-77
2021/08/06 01:04:04;;;;;;;3.47;0.80;;;512.70;2048.00;;;;;;5114174;28;20512;-77
2021/08/06 01:06:36;;;;;;;3.53;1.00;;;512.80;2048.00;;;;;;5114298;28;20055;-77
2021/08/06 01:09:43;;;;;;;2.73;0.80;;;512.70;2048.00;;;;;;5114311;28;20027;-77
2021/08/06 01:12:12;;;;;;;3.92;0.85;;;512.70;2048.00;;;;;;5069023;28;20035;-81
2021/08/06 01:14:41;;;;;;;3.22;1.00;;;512.70;2048.00;;;;;;5114134;28;20026;-74
2021/08/06 01:17:09;;;;;;;2.85;1.00;;;512.70;2048.00;;;;;;5113988;28;20035;-76
2021/08/06 01:19:51;;;;;;;1.85;0.80;;;512.80;2048.00;;;;;;5114069;28;20020;-77
2021/08/06 01:22:25;;;;;;;8.15;1.35;;;512.70;2048.00;;;;;;5114028;28;20055;-77
2021/08/06 01:25:21;;;;;;;4.57;1.35;;;512.60;2073.60;;;;;;5113998;28;20028;-77
2021/08/06 01:27:50;;;;;;;2.13;0.80;;;512.60;2073.60;;;;;;5095791;28;20507;-77
2021/08/06 01:30:16;;;;;;;1.15;0.88;;;512.60;2048.00;;;;;;5113914;28;20024;-76
2021/08/06 01:32:41;;;;;;;2.88;0.80;;;512.60;2048.00;;;;;;5113879;28;20020;-77
2021/08/06 01:35:09;;;;;;;4.40;0.77;;;512.50;2073.60;;;;;;5113858;28;20498;-76
2021/08/06 01:37:36;;;;;;;3.35;0.80;;;512.60;2048.00;;;;;;5095575;28;20044;-77
2021/08/06 01:40:06;;;;;;;3.08;0.90;;;512.60;2048.00;;;;;;5095504;28;20019;-78
2021/08/06 01:43:15;;;;;;;3.03;1.00;;;512.70;2048.00;;;;;;5113871;28;20034;-76
2021/08/06 01:45:44;;;;;;;3.08;0.75;;;512.60;2048.00;;;;;;5031170;28;20026;-77
2021/08/06 01:48:13;;;;;;;2.17;1.10;;;512.60;2048.00;;;;;;5103258;28;20040;-77
2021/08/06 01:50:45;;;;;;;3.90;1.13;;;512.60;2048.00;;;;;;5117906;28;20016;-76
2021/08/06 01:53:15;;;;;;;4.38;1.40;;;512.50;2073.60;;;;;;5117999;28;20028;-77
2021/08/06 01:56:02;;;;;;;3.88;1.33;;;512.60;2048.00;;;;;;5117895;28;20038;-78
2021/08/06 01:58:30;;;;;;;2.42;1.10;;;512.50;2048.00;;;;;;5117681;28;20399;-77
2021/08/06 02:00:57;;;;;;;8.15;1.40;;;512.50;2048.00;;;;;;5118059;28;20073;-78
2021/08/06 02:03:23;;;;;;;2.05;0.93;;;512.50;2073.60;;;;;;5117673;28;20096;-77
2021/08/06 02:05:51;;;;;;;3.13;1.05;;;512.50;2073.60;;;;;;5099390;28;20020;-76
2021/08/06 02:08:18;;;;;;;2.60;1.00;;;512.60;2073.60;;;;;;5117780;28;20107;-78
2021/08/06 02:10:44;;;;;;;7.72;1.20;;;512.60;2073.60;;;;;;5118122;28;20016;-78
2021/08/06 02:13:11;;;;;;;2.50;0.95;;;512.50;2073.60;;;;;;5117486;28;20038;-78
2021/08/06 02:15:41;;;;;;;5.20;0.98;;;512.50;2073.60;;;;;;5117493;28;20464;-78
2021/08/06 02:18:10;;;;;;;8.13;1.20;;;512.50;2073.60;;;;;;5117385;28;20103;-78
2021/08/06 02:20:37;;;;;;;4.68;1.10;;;512.50;2073.60;;;;;;5117457;28;20016;-76
2021/08/06 02:23:05;;;;;;;1.52;1.05;;;512.40;2073.60;;;;;;5117640;28;20076;-77
2021/08/06 02:25:32;;;;;;;2.58;1.40;;;512.40;2073.60;;;;;;5117084;28;20039;-76
2021/08/06 02:27:58;;;;;;;3.55;1.23;;;512.40;2073.60;;;;;;5117334;28;20035;-77
2021/08/06 02:30:25;;;;;;;3.03;1.10;;;512.40;2073.60;;;;;;5117237;28;20055;-77
2021/08/06 02:32:51;;;;;;;2.05;1.05;;;512.40;2073.60;;;;;;5117130;28;20016;-78
2021/08/06 02:35:17;;;;;;;3.10;1.20;;;512.40;2073.60;;;;;;5117072;28;20099;-77
2021/08/06 02:37:45;;;;;;;5.43;1.30;;;512.30;2073.60;;;;;;5098604;28;20082;-77
2021/08/06 02:40:12;;;;;;;3.67;1.05;;;512.30;2073.60;;;;;;5098651;28;20020;-76
2021/08/06 02:42:38;;;;;;;6.18;1.40;;;512.30;2073.60;;;;;;5117007;28;20076;-76
2021/08/06 02:45:05;;;;;;;2.05;1.10;;;512.40;2073.60;;;;;;5116846;28;20024;-77
2021/08/06 02:47:31;;;;;;;4.95;1.30;;;512.30;2073.60;;;;;;5116765;28;20499;-77
2021/08/06 02:49:57;;;;;;;3.65;1.17;;;512.30;2073.60;;;;;;5116733;28;20023;-77
2021/08/06 02:52:22;;;;;;;2.70;1.10;;;512.30;2073.60;;;;;;5116834;28;20024;-76
2021/08/06 02:54:48;;;;;;;3.45;1.20;;;512.30;2048.00;;;;;;5116706;28;20027;-78
2021/08/06 02:57:14;;;;;;;2.92;1.00;;;512.30;2073.60;;;;;;5116586;28;20032;-77
2021/08/06 02:59:40;;;;;;;3.90;1.10;;;512.20;2073.60;;;;;;5116447;28;20028;-77
2021/08/06 03:02:06;;;;;;;3.28;0.95;;;512.30;2073.60;;;;;;5097596;28;20030;-77
2021/08/06 03:04:32;;;;;;;4.05;1.67;;;512.20;2073.60;;;;;;5116511;28;20015;-77
2021/08/06 03:06:58;;;;;;;4.45;1.30;;;512.20;2048.00;;;;;;5116657;28;20110;-77
2021/08/06 03:09:24;;;;;;;2.42;1.08;;;512.10;2073.60;;;;;;5116790;28;20452;-77
2021/08/06 03:11:50;;;;;;;2.63;1.00;;;512.10;2048.00;;;;;;5098020;28;20031;-77
2021/08/06 03:14:16;;;;;;;1.40;0.85;;;512.10;2048.00;;;;;;5116503;28;20376;-77
2021/08/06 03:16:42;;;;;;;5.28;1.00;;;512.10;2048.00;;;;;;5116246;28;20499;-77
2021/08/06 03:19:08;;;;;;;4.60;0.98;;;512.00;2048.00;;;;;;5116320;28;20032;-77
2021/08/06 03:21:34;;;;;;;3.60;1.00;;;512.10;2048.00;;;;;;5116137;28;20026;-77
2021/08/06 03:24:00;;;;;;;3.90;1.20;;;512.10;2048.00;;;;;;5116140;28;20047;-78
2021/08/06 03:26:26;;;;;;;3.22;1.10;;;512.00;2048.00;;;;;;5115745;28;20567;-78
2021/08/06 03:28:52;;;;;;;2.75;1.33;;;512.00;2073.60;;;;;;5116132;28;20110;-77
2021/08/06 03:31:18;;;;;;;3.60;1.33;;;512.00;2073.60;;;;;;5115995;28;20027;-77
2021/08/06 03:33:44;;;;;;;3.95;1.63;;;512.00;2048.00;;;;;;5115955;28;20057;-78
2021/08/06 03:36:12;;;;;;;3.88;1.38;;;512.00;2048.00;;;;;;5115799;28;20035;-78
2021/08/06 03:38:38;;;;;;;5.88;1.60;;;512.00;2048.00;;;;;;5097624;28;20023;-77
2021/08/06 03:41:04;;;;;;;4.65;1.27;;;512.00;2048.00;;;;;;5115878;28;20024;-77
2021/08/06 03:43:29;;;;;;;4.15;1.40;;;512.00;2048.00;;;;;;5115700;28;20028;-77
2021/08/06 03:45:56;;;;;;;3.95;1.40;;;512.00;2073.60;;;;;;5115734;28;20026;-77
2021/08/06 03:48:22;;;;;;;2.20;1.10;;;512.00;2048.00;;;;;;5115710;28;20028;-77
2021/08/06 03:50:48;;;;;;;5.22;1.00;;;512.00;2073.60;;;;;;5097302;28;20035;-78
2021/08/06 03:53:13;;;;;;;4.80;1.33;;;512.00;2073.60;;;;;;5115605;28;20107;-78
2021/08/06 03:55:39;;;;;;;2.05;1.05;;;512.00;2073.60;;;;;;5115501;28;20049;-78
2021/08/06 03:58:05;;;;;;;9.45;1.40;;;512.00;2073.60;;;;;;5115444;28;20039;-78
2021/08/06 04:00:34;;;;;;;3.60;1.20;;;487.30;2073.60;;;;;;5115326;28;20023;-77
2021/08/06 04:03:00;;;;;;;7.53;1.55;;;487.30;2073.60;;;;;;5097090;28;20023;-78
2021/08/06 04:05:26;;;;;;;6.55;1.10;;;487.30;2073.60;;;;;;5115338;28;20039;-77
2021/08/06 04:07:52;;;;;;;3.33;1.15;;;487.30;2073.60;;;;;;5115272;28;20055;-77
2021/08/06 04:10:19;;;;;;;3.28;1.25;;;512.00;2073.60;;;;;;5096922;28;20146;-77
2021/08/06 04:12:49;;;;;;;4.75;1.45;;;487.30;2073.60;;;;;;5115167;28;20016;-78
2021/08/06 04:15:16;;;;;;;2.05;1.15;;;512.00;2073.60;;;;;;5115279;28;20016;-77
2021/08/06 04:17:42;;;;;;;2.72;1.40;;;512.00;2073.60;;;;;;5115026;28;20035;-77
2021/08/06 04:20:09;;;;;;;5.63;1.77;;;512.00;2073.60;;;;;;5115170;28;20023;-76
2021/08/06 04:22:35;;;;;;;4.15;1.60;;;512.00;2048.00;;;;;;5114918;28;20020;-78
2021/08/06 04:25:01;;;;;;;3.05;1.15;;;512.00;2073.60;;;;;;5096535;28;20460;-77
2021/08/06 04:27:27;;;;;;;10.18;1.67;;;512.00;2073.60;;;;;;5114893;28;20110;-77
2021/08/06 04:29:53;;;;;;;5.72;1.15;;;512.00;2073.60;;;;;;5115261;28;20485;-77
2021/08/06 04:32:19;;;;;;;1.98;1.00;;;512.00;2073.60;;;;;;5114904;28;20027;-77
2021/08/06 04:34:44;;;;;;;3.58;1.35;;;512.00;2073.60;;;;;;5115111;28;20077;-78
2021/08/06 04:37:11;;;;;;;2.75;1.30;;;512.00;2073.60;;;;;;5114580;28;20028;-77
2021/08/06 04:39:37;;;;;;;2.60;1.30;;;512.00;2073.60;;;;;;5114780;28;20023;-77
2021/08/06 04:42:03;;;;;;;4.97;1.50;;;512.10;2048.00;;;;;;5114588;28;20027;-78
2021/08/06 04:44:34;;;;;;;1.70;1.30;;;512.10;2048.00;;;;;;5114751;28;20028;-77
2021/08/06 04:47:00;;;;;;;5.45;1.23;;;512.10;2073.60;;;;;;5114821;28;20024;-78
2021/08/06 04:49:26;;;;;;;2.70;1.20;;;512.10;2073.60;;;;;;5114442;28;20486;-78
2021/08/06 04:51:52;;;;;;;6.45;1.30;;;512.10;2048.00;;;;;;5114438;28;20024;-78
2021/08/06 04:54:18;;;;;;;5.15;1.50;;;512.00;2073.60;;;;;;5114598;28;20093;-78
2021/08/06 04:56:44;;;;;;;5.75;1.48;;;512.00;2073.60;;;;;;5114407;28;20031;-78
2021/08/06 04:59:10;;;;;;;6.20;1.35;;;512.00;2073.60;;;;;;5114290;28;20032;-77
2021/08/06 05:01:36;;;;;;;5.18;1.60;;;512.00;2099.20;;;;;;5096023;28;20045;-77
2021/08/06 05:04:01;;;;;;;5.70;1.33;;;512.10;2073.60;;;;;;5114287;28;20065;-77
2021/08/06 05:06:27;;;;;;;2.08;1.40;;;512.10;2073.60;;;;;;5096000;28;20428;-78
2021/08/06 05:08:53;;;;;;;2.03;1.38;;;512.10;2099.20;;;;;;5114243;28;20030;-77
2021/08/06 05:11:19;;;;;;;3.97;1.38;;;512.30;2073.60;;;;;;5114141;28;20011;-78
2021/08/06 05:13:45;;;;;;;3.78;1.70;;;512.20;2099.20;;;;;;5095816;28;20031;-75
2021/08/06 05:16:11;;;;;;;3.95;2.08;;;512.30;2099.20;;;;;;5114282;28;20411;-78
2021/08/06 05:18:38;;;;;;;2.47;1.67;;;512.30;2099.20;;;;;;5114048;28;20036;-78
2021/08/06 05:21:04;;;;;;;3.15;1.77;;;512.30;2099.20;;;;;;5114038;28;20077;-76
2021/08/06 05:23:30;;;;;;;4.95;2.00;;;512.40;2099.20;;;;;;5113631;28;20027;-78
2021/08/06 05:25:56;;;;;;;6.85;2.42;;;512.30;2124.80;;;;;;5113839;28;20036;-77
2021/08/06 05:28:22;;;;;;;2.63;2.03;;;512.40;2124.80;;;;;;5095712;28;20023;-78
2021/08/06 05:30:48;;;;;;;5.18;2.03;;;512.50;2124.80;;;;;;5113988;28;20024;-77
2021/08/06 05:33:14;;;;;;;5.68;2.28;;;512.50;2124.80;;;;;;5095615;28;20026;-78
2021/08/06 05:35:40;;;;;;;10.50;9.20;;;512.40;2150.40;;;;;;5095835;28;20024;-78
2021/08/06 05:38:07;;;;;;;8.88;5.43;;;512.50;2150.40;;;;;;5113745;28;20385;-77
2021/08/06 05:40:33;;;;;;;7.00;3.10;;;512.60;2124.80;;;;;;5113789;28;20023;-77
2021/08/06 05:42:59;;;;;;;8.13;2.88;;;512.80;2124.80;;;;;;5113789;28;20028;-77
2021/08/06 05:45:25;;;;;;;5.95;2.97;;;512.80;2150.40;;;;;;5113827;28;20027;-77
2021/08/06 05:47:53;;;;;;;5.68;3.08;;;512.80;2124.80;;;;;;5113720;28;20020;-77
2021/08/06 05:50:22;;;;;;;3.53;2.65;;;512.90;2150.40;;;;;;5113719;28;20114;-77
2021/08/06 05:52:48;;;;;;;3.70;3.10;;;537.60;2176.00;;;;;;5113992;28;20019;-78
2021/08/06 05:55:16;;;;;;;6.18;3.10;;;537.60;2176.00;;;;;;5113781;28;20484;-77
2021/08/06 05:57:43;;;;;;;3.55;2.45;;;537.60;2176.00;;;;;;5113610;28;20153;-77
2021/08/06 06:00:11;;;;;;;5.93;2.80;;;537.70;2150.40;;;;;;5113823;28;20019;-78
2021/08/06 06:02:37;;;;;;;5.60;3.22;;;537.80;2150.40;;;;;;5115651;28;20020;-77
2021/08/06 06:05:04;;;;;;;39.65;36.25;;;537.80;2124.80;;;;;;5095370;28;20028;-77
2021/08/06 06:07:29;;;;;;;4.28;3.17;;;537.80;2150.40;;;;;;5113581;28;20062;-77
2021/08/06 06:09:55;;;;;;;4.75;3.22;;;537.80;2150.40;;;;;;5114095;28;20016;-77
2021/08/06 06:12:21;;;;;;;5.25;2.30;;;537.90;2150.40;;;;;;5113527;28;20028;-78
2021/08/06 06:14:47;;;;;;;4.78;2.70;;;537.90;2150.40;;;;;;5095224;28;20028;-78
2021/08/06 06:17:13;;;;;;;3.95;2.72;;;538.00;2150.40;;;;;;5113192;28;20032;-77
2021/08/06 06:19:39;;;;;;;5.60;2.65;;;538.10;2124.80;;;;;;5113298;28;20024;-77
2021/08/06 06:22:06;;;;;;;4.10;2.83;;;538.20;2124.80;;;;;;5113296;28;20061;-77
2021/08/06 06:24:34;;;;;;;3.97;2.97;;;538.20;2099.20;;;;;;5113264;28;20076;-78
2021/08/06 06:27:00;;;;;;;4.63;2.55;;;538.30;2124.80;;;;;;5094758;28;20050;-77
2021/08/06 06:29:26;;;;;;;3.20;2.30;;;538.30;2124.80;;;;;;5113094;28;20376;-77
2021/08/06 06:31:52;;;;;;;3.50;3.05;;;538.50;2073.60;;;;;;5113078;28;20027;-77
2021/08/06 06:34:18;;;;;;;6.28;5.72;;;538.50;2124.80;;;;;;5094726;28;20219;-77
2021/08/06 06:36:44;;;;;;;100.35;90.78;;;563.20;2124.80;;;;;;5115489;28;20028;-77
2021/08/06 06:39:10;;;;;;;14.82;13.43;;;563.20;2124.80;;;;;;5119362;27;20030;-76
2021/08/06 06:41:36;;;;;;;3.72;3.20;;;563.40;2099.20;;;;;;5116856;28;20024;-78
2021/08/06 06:44:02;;;;;;;6.32;2.97;;;563.40;2124.80;;;;;;5098627;28;20016;-77
2021/08/06 06:46:28;;;;;;;4.20;3.00;;;563.60;2099.20;;;;;;5116764;28;20491;-78
2021/08/06 06:48:54;;;;;;;5.45;2.70;;;563.70;2073.60;;;;;;5116540;28;20034;-78
2021/08/06 06:51:20;;;;;;;4.40;2.92;;;563.90;2073.60;;;;;;5123793;27;20023;-77
2021/08/06 06:53:47;;;;;;;4.68;2.20;;;564.00;2073.60;;;;;;5125272;27;20023;-76
2021/08/06 06:56:13;;;;;;;3.90;1.95;;;564.00;2048.00;;;;;;5122691;27;20026;-76
2021/08/06 06:58:39;;;;;;;3.42;2.47;;;564.10;2022.40;;;;;;5126439;27;20106;-77
2021/08/06 07:01:05;;;;;;;5.05;2.90;;;588.80;2022.40;;;;;;5106237;27;20030;-77
2021/08/06 07:03:32;;;;;;;6.68;3.80;;;589.00;2022.40;;;;;;5127278;27;20015;-78
2021/08/06 07:05:58;;;;;;;7.72;6.78;;;589.10;1996.80;;;;;;5126051;27;20409;-75
2021/08/06 07:08:23;;;;;;;11.57;10.48;;;589.10;1996.80;;;;;;5122892;27;20015;-81
2021/08/06 07:10:49;;;;;;;9.15;5.20;;;589.30;1971.20;;;;;;5116660;28;20472;-79
2021/08/06 07:13:15;;;;;;;4.07;1.65;;;589.30;1945.60;;;;;;5098078;28;20380;-79
2021/08/06 07:15:41;;;;;;;4.18;1.83;;;589.40;1945.60;;;;;;5098035;28;20031;-78
2021/08/06 07:18:11;;;;;;;4.55;3.00;;;589.50;1920.00;;;;;;5097865;28;20039;-76
2021/08/06 07:20:37;;;;;;;3.17;2.03;;;589.70;1920.00;;;;;;5098338;27;20023;-79
2021/08/06 07:23:03;;;;;;;20.25;4.35;;;589.70;1920.00;;;;;;5116305;28;20108;-77
2021/08/06 07:25:29;;;;;;;6.78;1.90;;;589.70;1868.80;;;;;;5097492;28;20074;-77
2021/08/06 07:27:55;;;;;;;3.80;1.67;;;614.40;1843.20;;;;;;5127165;27;20035;-77
2021/08/06 07:30:21;;;;;;;7.90;2.00;;;614.40;1843.20;;;;;;5110740;27;20028;-76
2021/08/06 07:32:48;;;;;;;6.72;1.50;;;614.50;1843.20;;;;;;5136609;27;20022;-77
2021/08/06 07:35:15;;;;;;;1.75;1.23;;;614.40;1843.20;;;;;;5135052;27;20019;-77
2021/08/06 07:37:42;;;;;;;13.25;6.18;;;614.50;1843.20;;;;;;5115644;28;20028;-77
2021/08/06 07:40:09;;;;;;;18.17;3.28;;;614.40;1843.20;;;;;;5116090;28;20026;-77
2021/08/06 07:42:35;;;;;;;6.80;3.58;;;614.50;1868.80;;;;;;5115735;28;20106;-77
2021/08/06 07:45:01;;;;;;;7.65;1.80;;;614.60;1843.20;;;;;;5105415;27;20452;-77
2021/08/06 07:47:27;;;;;;;2.47;1.13;;;614.60;1843.20;;;;;;5135848;27;20095;-78
2021/08/06 07:49:53;;;;;;;3.92;1.30;;;614.50;1817.60;;;;;;5117799;27;20071;-78
2021/08/06 07:52:19;;;;;;;4.13;1.23;;;614.60;1817.60;;;;;;5114670;27;20383;-77
2021/08/06 07:54:45;;;;;;;6.28;1.58;;;614.60;1843.20;;;;;;5096760;28;20045;-78
2021/08/06 07:57:11;;;;;;;6.53;1.60;;;614.60;1817.60;;;;;;5094405;28;20031;-77
2021/08/06 07:59:38;;;;;;;7.68;1.65;;;614.60;1817.60;;;;;;5112645;28;20019;-78
2021/08/06 08:02:05;;;;;;;2.88;0.93;;;614.70;1817.60;;;;;;5118705;27;20505;-77
2021/08/06 08:04:31;;;;;;;1.10;0.85;;;614.70;1740.80;;;;;;5102698;28;20080;-77
2021/08/06 08:06:56;;;;;;;3.17;0.77;;;614.80;1792.00;;;;;;5116265;27;20031;-77
2021/08/06 08:09:22;;;;;;;3.72;1.17;;;614.80;1817.60;;;;;;5114440;28;20024;-77
2021/08/06 08:11:48;;;;;;;12.82;6.18;;;614.90;1817.60;;;;;;5101694;27;20557;-77
2021/08/06 08:14:14;;;;;;;7.43;2.65;;;614.90;1792.00;;;;;;5101012;28;20119;-78
2021/08/06 08:16:40;;;;;;;13.77;1.63;;;614.90;1792.00;;;;;;5113692;28;20369;-77
2021/08/06 08:19:06;;;;;;;17.10;1.58;;;614.90;1817.60;;;;;;5113045;28;20081;-77
2021/08/06 08:21:32;;;;;;;7.95;1.35;;;614.90;1792.00;;;;;;5113631;28;20019;-77
2021/08/06 08:23:58;;;;;;;16.15;2.33;;;614.90;1817.60;;;;;;5094766;28;20391;-77
2021/08/06 08:26:24;;;;;;;62.15;4.18;;;614.90;1792.00;;;;;;5095214;28;20059;-76
2021/08/06 08:28:50;;;;;;;23.23;1.83;;;614.90;1792.00;;;;;;5095356;28;20113;-79
2021/08/06 08:31:17;;;;;;;21.92;2.20;;;615.00;1792.00;;;;;;5113933;28;20024;-78
2021/08/06 08:33:44;;;;;;;3.85;0.85;;;615.00;1792.00;;;;;;5095494;28;20023;-76
2021/08/06 08:36:10;;;;;;;7.40;1.98;;;614.90;1766.40;;;;;;5113332;28;20519;-75
2021/08/06 08:38:35;;;;;;;10.45;1.85;;;615.00;1766.40;;;;;;5113243;28;20115;-76
2021/08/06 08:41:03;;;;;;;16.17;1.98;;;615.00;1792.00;;;;;;5094944;28;20140;-75
2021/08/06 08:43:29;;;;;;;11.07;1.50;;;615.10;1766.40;;;;;;5094766;28;20023;-76
2021/08/06 08:45:56;;;;;;;9.35;1.23;;;615.10;1766.40;;;;;;5113018;28;20383;-74
2021/08/06 08:48:23;;;;;;;3.42;2.00;;;615.10;1766.40;;;;;;5094914;28;20019;-72
2021/08/06 08:50:52;;;;;;;1.98;1.42;;;615.00;1689.60;;;;;;5115551;27;20055;-73
2021/08/06 08:53:18;;;;;;;5.65;1.67;;;615.00;1638.40;;;;;;5094794;28;20376;-75
2021/08/06 08:55:44;;;;;;;2.53;1.02;;;614.90;1689.60;;;;;;5112999;28;20463;-76
2021/08/06 08:58:11;;;;;;;4.10;1.05;;;614.90;1689.60;;;;;;5094044;28;20036;-76
2021/08/06 09:00:37;;;;;;;6.80;1.38;;;615.00;1715.20;;;;;;5094639;28;20103;-77
2021/08/06 09:03:03;;;;;;;1.20;0.52;;;615.00;1715.20;;;;;;5094643;28;20110;-76
2021/08/06 09:05:29;;;;;;;4.50;1.83;;;615.10;1715.20;;;;;;5112868;28;20028;-76
2021/08/06 09:07:57;;;;;;;5.15;1.20;;;615.00;1715.20;;;;;;5112757;28;20076;-76
2021/08/06 09:10:28;;;;;;;5.43;1.45;;;615.10;1715.20;;;;;;5094512;28;20023;-76
2021/08/06 09:12:57;;;;;;;5.65;1.60;;;615.10;1689.60;;;;;;5112753;28;20061;-77
2021/08/06 09:15:47;;;;;;;2.67;1.30;;;615.00;1715.20;;;;;;5092272;28;20023;-76
2021/08/06 09:18:37;;;;;;;15.05;11.10;;;615.00;1612.80;;;;;;5111835;28;20031;-76
2021/08/06 09:21:16;;;;;;;4.80;4.30;;;615.00;1664.00;;;;;;5092054;28;20043;-77
2021/08/06 09:23:56;;;;;;;4.20;2.10;;;615.10;1638.40;;;;;;5110192;28;20088;-77
2021/08/06 09:26:28;;;;;;;3.00;1.95;;;615.10;1612.80;;;;;;5110101;28;20377;-77
2021/08/06 09:29:01;;;;;;;2.10;1.30;;;615.10;1638.40;;;;;;5112516;28;20025;-77
2021/08/06 09:31:30;;;;;;;5.45;1.73;;;615.10;1561.60;;;;;;5111522;28;20625;-76
2021/08/06 09:34:09;;;;;;;28.65;3.45;;;615.10;1638.40;;;;;;5103786;28;20434;-75
2021/08/06 09:36:35;;;;;;;1.88;1.30;;;615.10;1664.00;;;;;;5115651;28;20058;-75
2021/08/06 09:39:15;;;;;;;11.15;2.80;;;615.10;1638.40;;;;;;5109573;28;20058;-77
2021/08/06 09:41:42;;;;;;;9.63;1.45;;;615.20;1664.00;;;;;;5091367;28;20019;-75
2021/08/06 09:44:23;;;;;;;9.27;2.20;;;615.20;1612.80;;;;;;5112294;28;20023;-76
2021/08/06 09:46:49;;;;;;;6.95;1.55;;;615.30;1638.40;;;;;;5094107;28;20124;-75
2021/08/06 09:49:19;;;;;;;6.63;1.90;;;615.30;1612.80;;;;;;5093971;28;20097;-77
2021/08/06 09:51:48;;;;;;;8.77;7.97;;;615.20;1561.60;;;;;;5110426;28;20411;-77
2021/08/06 09:54:27;;;;;;;11.20;2.22;;;615.30;1561.60;;;;;;5113367;28;20020;-75
2021/08/06 09:57:10;;;;;;;7.70;5.55;;;615.20;1587.20;;;;;;5124953;28;20039;-76
2021/08/06 09:59:37;;;;;;;2.50;1.30;;;615.30;1587.20;;;;;;5125500;28;20489;-77
2021/08/06 10:02:22;;;;;;;4.57;1.63;;;615.30;1561.60;;;;;;5122265;28;20023;-74
2021/08/06 10:04:59;;;;;;;2.58;1.08;;;615.10;1587.20;;;;;;5102960;28;20022;-75
2021/08/06 10:07:27;;;;;;;3.30;1.90;;;615.30;1612.80;;;;;;5122694;28;20098;-74
2021/08/06 10:09:53;;;;;;;2.17;1.30;;;615.30;1612.80;;;;;;5114892;27;20019;-74
2021/08/06 10:12:20;;;;;;;2.30;1.42;;;640.00;1612.80;;;;;;5120157;27;20031;-76
2021/08/06 10:14:46;;;;;;;2.10;1.08;;;640.00;1587.20;;;;;;5099131;28;20026;-76
2021/08/06 10:17:12;;;;;;;5.45;1.73;;;615.30;1510.40;;;;;;5099048;28;20031;-73
2021/08/06 10:19:39;;;;;;;7.32;1.60;;;615.30;1561.60;;;;;;5117367;28;20072;-76
2021/08/06 10:22:06;;;;;;;7.00;1.20;;;640.00;1587.20;;;;;;5099076;28;20041;-75
2021/08/06 10:24:33;;;;;;;6.85;1.52;;;640.00;1484.80;;;;;;5117447;28;20038;-75
2021/08/06 10:27:00;;;;;;;11.98;7.65;;;640.00;1561.60;;;;;;5117072;28;20085;-75
2021/08/06 10:29:26;;;;;;;4.13;1.70;;;640.00;1587.20;;;;;;5117334;28;20024;-75
2021/08/06 10:32:14;;;;;;;5.07;1.85;;;640.00;1561.60;;;;;;5098933;28;20081;-74
2021/08/06 10:35:19;;;;;;;5.55;1.42;;;640.10;1510.40;;;;;;5124367;27;20019;-75
2021/08/06 10:38:04;;;;;;;5.35;1.60;;;640.10;1536.00;;;;;;5118270;27;20061;-76
2021/08/06 10:40:38;;;;;;;4.72;1.50;;;640.10;1510.40;;;;;;5126473;27;20023;-77
2021/08/06 10:43:09;;;;;;;3.47;1.67;;;640.10;1433.60;;;;;;5124273;27;20016;-75
2021/08/06 10:45:53;;;;;;;4.45;1.20;;;640.20;1536.00;;;;;;5115933;27;20019;-74
2021/08/06 10:48:31;;;;;;;3.13;1.20;;;640.20;1536.00;;;;;;5137497;27;20438;-77
2021/08/06 10:51:12;;;;;;;5.05;1.50;;;640.20;1536.00;;;;;;5125851;27;20022;-75
2021/08/06 10:53:39;;;;;;;5.55;1.40;;;640.20;1510.40;;;;;;5107885;27;20391;-76
2021/08/06 10:56:19;;;;;;;2.50;1.55;;;640.20;1536.00;;;;;;5107051;27;20019;-77
2021/08/06 10:58:53;;;;;;;2.75;1.38;;;640.20;1510.40;;;;;;5116999;27;20032;-76
2021/08/06 11:01:32;;;;;;;1.55;1.17;;;640.20;1536.00;;;;;;5118814;27;20035;-77
2021/08/06 11:04:06;;;;;;;4.55;1.80;;;640.30;1433.60;;;;;;5137187;27;20375;-75
2021/08/06 11:06:51;;;;;;;3.55;2.13;;;640.30;1536.00;;;;;;5118720;27;20105;-75
2021/08/06 11:09:29;;;;;;;3.33;1.30;;;640.20;1484.80;;;;;;5118539;27;20080;-76
2021/08/06 11:11:58;;;;;;;15.65;2.00;;;640.30;1536.00;;;;;;5118513;27;20027;-73
2021/08/06 11:14:30;;;;;;;4.03;1.65;;;640.30;1484.80;;;;;;5118368;27;20379;-73
2021/08/06 11:16:56;;;;;;;1.73;1.35;;;640.30;1510.40;;;;;;5136723;27;20048;-75
2021/08/06 11:19:35;;;;;;;17.40;1.73;;;640.30;1510.40;;;;;;5136758;27;20031;-78
2021/08/06 11:22:05;;;;;;;7.45;1.90;;;640.30;1510.40;;;;;;5136035;27;20023;-77
2021/08/06 11:24:42;;;;;;;3.95;1.48;;;640.30;1510.40;;;;;;5136709;27;20019;-74
2021/08/06 11:27:10;;;;;;;2.53;1.30;;;640.30;1510.40;;;;;;5124524;27;20044;-75
2021/08/06 11:29:37;;;;;;;5.40;1.33;;;640.30;1510.40;;;;;;5123669;27;20024;-76
2021/08/06 11:32:08;;;;;;;4.75;1.30;;;640.40;1510.40;;;;;;5107906;27;20011;-72
2021/08/06 11:34:56;;;;;;;2.50;1.17;;;640.30;1510.40;;;;;;5124095;27;20475;-74
2021/08/06 11:37:24;;;;;;;3.90;1.38;;;640.50;1484.80;;;;;;5097484;28;20051;-75
2021/08/06 11:40:09;;;;;;;5.45;1.40;;;640.50;1510.40;;;;;;5115922;28;20016;-73
2021/08/06 11:42:37;;;;;;;4.57;1.35;;;640.50;1484.80;;;;;;5107688;27;20395;-73
2021/08/06 11:45:09;;;;;;;3.10;1.27;;;640.50;1484.80;;;;;;5108991;27;20379;-73
2021/08/06 11:47:36;;;;;;;11.88;4.65;;;640.50;1484.80;;;;;;5120208;27;20416;-76
2021/08/06 11:50:04;;;;;;;36.15;9.57;;;640.50;1484.80;;;;;;5115629;28;20023;-74
2021/08/06 11:52:48;;;;;;;27.83;6.32;;;640.50;1484.80;;;;;;5123942;27;20026;-74
2021/08/06 11:55:18;;;;;;;201.73;45.53;;;640.60;1484.80;;;;;;5117741;27;20050;-76
2021/08/06 11:57:53;;;;;;;62.80;13.77;;;640.70;1484.80;;;;;;5135871;27;20035;-77
2021/08/06 12:00:29;;;;;;;82.38;19.63;;;640.80;1433.60;;;;;;5136015;27;20110;-76
2021/08/06 12:03:17;;;;;;;18.50;2.80;;;640.80;1408.00;;;;;;5136009;27;20394;-74
2021/08/06 12:05:48;;;;;;;82.45;20.20;;;665.60;1484.80;;;;;;5135589;27;20024;-75
2021/08/06 12:08:28;;;;;;;83.30;17.92;;;665.60;1484.80;;;;;;5135709;27;20021;-76
2021/08/06 12:11:07;;;;;;;81.50;29.08;;;640.90;1459.20;;;;;;5135566;27;20025;-76
2021/08/06 12:13:54;;;;;;;302.50;155.38;;;665.60;1459.20;;;;;;5108564;27;20019;-76
2021/08/06 12:16:26;;;;;;;389.13;255.43;;;665.60;1510.40;;;;;;5101684;28;20047;-75
2021/08/06 12:18:55;;;;;;;264.75;166.07;;;640.90;1484.80;;;;;;5122561;27;20031;-77
2021/08/06 12:21:29;;;;;;;708.75;334.02;;;665.60;1510.40;;;;;;5105417;27;20025;-75
2021/08/06 12:24:20;;;;;;;191.18;70.68;;;665.60;1484.80;;;;;;5129300;27;20031;-74